KTIW Airport Information

Runway Information
Runway 17 Length 5002 ft width 150 ft
Elevation 289 ft Threshold 0 ft Heading 187
Runway 35 Length 5002 ft Width 150 ft
Elevation 292 ft Threshold 0 ft Heading 7
Airport Frequencies
Type A/D Name SEATTLE AP Frequency 120.1 MHZ
Type ATIS Name ATIS Frequency 124.05 MHZ
Type CTAF Name CTAF Frequency 118.5 MHZ
Type GND Name GND Frequency 121.8 MHZ
Type TWR Name TWR Frequency 118.5 MHZ
Type UNIC Name UNICOM Frequency 122.95 MHZ
Airport Navaids
Airport Weather Information & NOTAM
ADDS - METARS form results

(1428 UTC 24 June 2018)
 
METAR text: KTIW 241353Z AUTO 31005KT 7SM OVC003 12/11 A3008 RMK AO2 CIG 002V005 SLP185 T01170106
Conditions at: KTIW (TACOMA , WA, US) observed 1353 UTC 24 June 2018
Temperature: 11.7°C (53°F)
Dewpoint: 10.6°C (51°F) [RH = 93%]
Pressure (altimeter): 30.08 inches Hg (1018.7 mb)
[Sea-level pressure: 1018.5 mb]
Winds: from the NW (310 degrees) at 6 MPH (5 knots; 2.6 m/s)
Visibility: 7 miles (11 km)
Ceiling: 300 feet AGL
Clouds: overcast cloud deck at 300 feet AGL
Weather: automated observation with no human augmentation;
there may or may not be significant weather present at this time

METAR text: KTIW 241351Z AUTO 32005KT 8SM OVC003 12/11 A3008 RMK AO2 CIG 002V006
Conditions at: KTIW (TACOMA , WA, US) observed 1351 UTC 24 June 2018
Temperature: 12.0°C (54°F)
Dewpoint: 11.0°C (52°F) [RH = 94%]
Pressure (altimeter): 30.08 inches Hg (1018.7 mb)
Winds: from the NW (320 degrees) at 6 MPH (5 knots; 2.6 m/s)
Visibility: 8 miles (13 km)
Ceiling: 300 feet AGL
Clouds: overcast cloud deck at 300 feet AGL
Weather: automated observation with no human augmentation;
there may or may not be significant weather present at this time